createdAt,value
2018-07-10T00:01:41.696Z,1.60
2018-07-10T00:04:19.632Z,1.80
2018-07-10T00:08:00.703Z,1.93
2018-07-10T00:10:37.981Z,2.03
2018-07-10T00:13:06.746Z,2.13
2018-07-10T00:15:34.965Z,1.70
2018-07-10T00:18:04.073Z,1.70
2018-07-10T00:20:32.469Z,1.90
2018-07-10T00:23:00.995Z,2.17
2018-07-10T00:25:29.453Z,2.10
2018-07-10T00:27:57.465Z,2.00
2018-07-10T00:30:25.904Z,2.00
2018-07-10T00:32:54.171Z,2.00
2018-07-10T00:35:22.465Z,2.50
2018-07-10T00:38:02.373Z,1.90
2018-07-10T00:40:30.793Z,1.93
2018-07-10T00:42:59.920Z,1.60
2018-07-10T00:45:28.164Z,2.03
2018-07-10T00:47:56.408Z,1.93
2018-07-10T00:50:24.642Z,2.00
2018-07-10T00:52:53.069Z,1.93
2018-07-10T00:55:24.780Z,2.07
2018-07-10T00:57:53.324Z,2.30
2018-07-10T01:00:30.029Z,1.97
2018-07-10T01:02:58.588Z,2.47
2018-07-10T01:05:26.884Z,2.10
2018-07-10T01:07:55.873Z,2.33
2018-07-10T01:10:24.707Z,2.00
2018-07-10T01:12:52.912Z,1.80
2018-07-10T01:15:22.793Z,2.07
2018-07-10T01:17:51.038Z,1.80
2018-07-10T01:20:20.034Z,2.13
2018-07-10T01:22:55.775Z,1.80
2018-07-10T01:25:24.733Z,2.10
2018-07-10T01:27:53.297Z,2.17
2018-07-10T01:30:21.643Z,1.93
2018-07-10T01:32:49.905Z,2.20
2018-07-10T01:35:18.217Z,1.60
2018-07-10T01:37:46.478Z,1.97
2018-07-10T01:40:14.712Z,2.43
2018-07-10T01:42:42.999Z,2.03
2018-07-10T01:45:11.267Z,1.63
2018-07-10T01:47:39.511Z,1.90
2018-07-10T01:50:07.764Z,1.80
2018-07-10T01:52:36.045Z,1.70
2018-07-10T01:55:04.308Z,1.93
2018-07-10T01:57:32.583Z,1.60
2018-07-10T02:00:00.848Z,1.90
2018-07-10T02:02:29.122Z,1.60
2018-07-10T02:04:57.381Z,1.70
2018-07-10T02:07:26.702Z,1.90
2018-07-10T02:09:55.018Z,1.50
2018-07-10T02:12:23.292Z,2.10
2018-07-10T02:14:51.595Z,1.60
2018-07-10T02:17:19.835Z,1.80
2018-07-10T02:19:48.116Z,1.80
2018-07-10T02:22:16.400Z,1.83
2018-07-10T02:24:44.673Z,1.87
2018-07-10T02:27:13.629Z,1.90
2018-07-10T02:29:41.864Z,2.20
2018-07-10T02:32:10.140Z,1.60
2018-07-10T02:34:38.365Z,1.73
2018-07-10T02:37:06.861Z,1.77
2018-07-10T02:39:35.128Z,1.43
2018-07-10T02:42:03.375Z,1.70
2018-07-10T02:44:31.637Z,1.80
2018-07-10T02:46:59.908Z,1.87
2018-07-10T02:49:28.841Z,1.60
2018-07-10T02:52:03.794Z,1.97
2018-07-10T02:54:36.232Z,1.93
2018-07-10T02:57:07.090Z,2.10
2018-07-10T02:59:38.631Z,1.87
2018-07-10T03:02:11.561Z,1.87
2018-07-10T03:04:40.797Z,2.37
2018-07-10T03:07:11.836Z,1.97
2018-07-10T03:09:40.095Z,2.13
2018-07-10T03:12:08.348Z,2.13
2018-07-10T03:14:36.632Z,1.90
2018-07-10T03:17:04.880Z,2.63
2018-07-10T03:19:33.135Z,1.90
2018-07-10T03:22:01.523Z,2.33
2018-07-10T03:24:30.017Z,2.30
2018-07-10T03:26:58.282Z,2.20
2018-07-10T03:29:26.561Z,2.10
2018-07-10T03:31:54.876Z,2.10
2018-07-10T03:34:23.404Z,2.10
2018-07-10T03:36:51.672Z,2.60
2018-07-10T03:39:19.970Z,2.30
2018-07-10T03:41:48.238Z,1.90
2018-07-10T03:44:17.508Z,2.07
2018-07-10T03:46:45.763Z,2.10
2018-07-10T03:49:14.046Z,2.30
2018-07-10T03:51:42.329Z,1.87
2018-07-10T03:54:10.601Z,2.43
2018-07-10T03:56:38.852Z,2.40
2018-07-10T03:59:07.151Z,2.10
2018-07-10T04:01:37.215Z,2.47
2018-07-10T04:04:05.974Z,2.40
2018-07-10T04:06:35.456Z,2.63
2018-07-10T04:09:05.415Z,2.10
2018-07-10T04:11:34.691Z,2.20
2018-07-10T04:14:03.405Z,2.00
2018-07-10T04:16:31.721Z,2.00
2018-07-10T04:18:59.990Z,2.23
2018-07-10T04:21:32.805Z,2.83
2018-07-10T04:24:10.455Z,2.10
2018-07-10T04:26:41.530Z,2.43
2018-07-10T04:29:20.289Z,2.20
2018-07-10T04:31:55.043Z,2.60
2018-07-10T04:34:23.728Z,2.20
2018-07-10T04:36:52.589Z,2.40
2018-07-10T04:39:20.937Z,2.50
2018-07-10T04:42:10.871Z,2.70
2018-07-10T04:44:39.229Z,2.63
2018-07-10T04:47:14.946Z,2.53
2018-07-10T04:49:48.927Z,2.37
2018-07-10T04:52:26.959Z,2.67
2018-07-10T04:55:03.697Z,2.50
2018-07-10T04:57:35.043Z,2.60
2018-07-10T05:00:05.230Z,2.43
2018-07-10T05:02:34.391Z,2.70
2018-07-10T05:05:02.660Z,3.57
2018-07-10T05:07:30.968Z,2.70
2018-07-10T05:09:59.280Z,2.60
2018-07-10T05:12:27.536Z,3.20
2018-07-10T05:14:56.727Z,3.10
2018-07-10T05:17:25.081Z,3.70
2018-07-10T05:19:54.719Z,2.83
2018-07-10T05:22:22.954Z,3.13
2018-07-10T05:24:52.240Z,3.17
2018-07-10T05:27:20.519Z,3.30
2018-07-10T05:29:49.005Z,3.40
2018-07-10T05:32:17.326Z,3.23
2018-07-10T05:34:45.573Z,3.10
2018-07-10T05:37:20.619Z,3.57
2018-07-10T05:39:48.973Z,3.23
2018-07-10T05:42:17.233Z,3.00
2018-07-10T05:44:46.006Z,3.67
2018-07-10T05:47:14.328Z,3.10
2018-07-10T05:49:42.648Z,2.93
2018-07-10T05:52:12.149Z,3.50
2018-07-10T05:54:41.792Z,3.20
2018-07-10T05:57:10.711Z,3.60
2018-07-10T05:59:38.950Z,3.63
2018-07-10T06:02:07.339Z,3.73
2018-07-10T06:04:38.104Z,3.90
2018-07-10T06:07:06.396Z,3.80
2018-07-10T06:09:34.637Z,3.60
2018-07-10T06:12:03.006Z,4.13
2018-07-10T06:14:31.302Z,3.80
2018-07-10T06:16:59.620Z,3.83
2018-07-10T06:19:27.886Z,3.80
2018-07-10T06:21:56.186Z,3.93
2018-07-10T06:24:26.489Z,3.93
2018-07-10T06:27:02.976Z,3.33
2018-07-10T06:29:44.755Z,3.70
2018-07-10T06:32:19.046Z,3.73
2018-07-10T06:34:47.561Z,4.33
2018-07-10T06:37:25.132Z,3.70
2018-07-10T06:39:53.981Z,3.90
2018-07-10T06:42:25.636Z,3.83
2018-07-10T06:44:53.886Z,5.23
2018-07-10T06:47:26.822Z,4.20
2018-07-10T06:49:55.160Z,4.40
2018-07-10T06:52:23.717Z,3.83
2018-07-10T06:55:07.373Z,4.07
2018-07-10T06:57:38.336Z,4.43
2018-07-10T07:00:08.453Z,4.70
2018-07-10T07:02:38.081Z,4.60
2018-07-10T07:05:06.558Z,4.70
2018-07-10T07:07:36.032Z,5.23
2018-07-10T07:10:05.747Z,5.97
2018-07-10T07:12:34.870Z,5.80
2018-07-10T07:15:04.617Z,5.87
2018-07-10T07:17:34.152Z,6.03
2018-07-10T07:20:02.686Z,6.20
2018-07-10T07:22:31.548Z,6.40
2018-07-10T07:25:00.438Z,6.03
2018-07-10T07:27:28.774Z,6.50
2018-07-10T07:29:57.155Z,6.07
2018-07-10T07:32:26.969Z,6.53
2018-07-10T07:34:55.405Z,6.03
2018-07-10T07:37:23.957Z,6.57
2018-07-10T07:39:52.264Z,6.70
2018-07-10T07:42:20.730Z,6.33
2018-07-10T07:44:50.661Z,6.50
2018-07-10T07:47:21.961Z,6.47
2018-07-10T07:49:50.679Z,6.63
2018-07-10T07:52:19.000Z,6.73
2018-07-10T07:54:56.265Z,6.30
2018-07-10T07:57:25.285Z,6.73
2018-07-10T07:59:53.782Z,6.40
2018-07-10T08:02:25.400Z,6.57
2018-07-10T08:04:54.074Z,7.20
2018-07-10T08:07:23.566Z,6.83
2018-07-10T08:09:53.170Z,7.00
2018-07-10T08:12:22.140Z,7.10
2018-07-10T08:14:51.538Z,7.47
2018-07-10T08:17:20.842Z,7.10
2018-07-10T08:19:50.093Z,6.70
2018-07-10T08:22:18.764Z,7.37
2018-07-10T08:24:47.167Z,7.62
2018-07-10T08:27:15.493Z,6.97
2018-07-10T08:29:43.836Z,6.70
2018-07-10T08:32:12.176Z,6.60
2018-07-10T08:34:40.484Z,6.40
2018-07-10T08:37:08.784Z,6.60
2018-07-10T08:39:37.113Z,6.40
2018-07-10T08:42:06.857Z,6.83
2018-07-10T08:44:44.040Z,6.33
2018-07-10T08:47:12.295Z,6.03
2018-07-10T08:49:41.345Z,6.12
2018-07-10T08:52:10.924Z,5.47
2018-07-10T08:54:39.293Z,6.57
2018-07-10T08:57:07.766Z,7.83
2018-07-10T08:59:37.587Z,8.17
2018-07-10T09:02:06.204Z,8.63
2018-07-10T09:04:34.498Z,8.97
2018-07-10T09:07:02.853Z,9.23
2018-07-10T09:09:31.091Z,9.20
2018-07-10T09:11:59.568Z,10.10
2018-07-10T09:14:28.001Z,9.57
2018-07-10T09:16:56.298Z,9.63
2018-07-10T09:19:28.060Z,9.23
2018-07-10T09:22:02.839Z,8.67
2018-07-10T09:24:31.821Z,10.13
2018-07-10T09:27:00.276Z,8.77
2018-07-10T09:29:28.606Z,9.30
2018-07-10T09:31:56.845Z,8.77
2018-07-10T09:34:25.263Z,9.23
2018-07-10T09:36:53.507Z,9.53
2018-07-10T09:39:21.506Z,8.67
2018-07-10T09:41:49.882Z,8.50
2018-07-10T09:44:18.242Z,7.40
2018-07-10T09:46:46.540Z,8.43
2018-07-10T09:49:14.885Z,7.53
2018-07-10T09:51:43.162Z,7.20
2018-07-10T09:54:11.509Z,6.53
2018-07-10T09:56:44.285Z,6.50
2018-07-10T09:59:12.608Z,6.27
2018-07-10T10:01:40.612Z,5.63
2018-07-10T10:04:08.878Z,6.00
2018-07-10T10:06:37.140Z,5.17
2018-07-10T10:09:06.086Z,5.63
2018-07-10T10:11:34.316Z,5.90
2018-07-10T10:14:02.585Z,5.30
2018-07-10T10:16:31.164Z,5.37
2018-07-10T10:19:00.055Z,5.10
2018-07-10T10:21:31.475Z,5.90
2018-07-10T10:24:00.213Z,5.43
2018-07-10T10:26:28.734Z,5.70
2018-07-10T10:28:57.004Z,5.03
2018-07-10T10:31:25.568Z,5.67
2018-07-10T10:33:53.846Z,5.10
2018-07-10T10:36:32.266Z,5.13
2018-07-10T10:39:00.784Z,4.90
2018-07-10T10:41:29.956Z,4.80
2018-07-10T10:43:58.327Z,5.03
2018-07-10T10:46:26.639Z,4.90
2018-07-10T10:48:54.923Z,4.50
2018-07-10T10:51:23.435Z,5.40
2018-07-10T10:53:52.453Z,5.13
2018-07-10T10:56:20.820Z,5.37
2018-07-10T10:58:49.483Z,5.57
2018-07-10T11:01:17.723Z,5.93
2018-07-10T11:03:49.510Z,7.00
2018-07-10T11:06:17.832Z,6.23
2018-07-10T11:08:46.095Z,6.10
2018-07-10T11:11:14.851Z,6.70
2018-07-10T11:13:43.300Z,6.50
2018-07-10T11:16:11.748Z,5.90
2018-07-10T11:18:50.618Z,5.83
2018-07-10T11:21:28.025Z,5.70
2018-07-10T11:23:58.450Z,5.73
2018-07-10T11:26:32.040Z,5.90
2018-07-10T11:29:01.172Z,5.63
2018-07-10T11:31:29.603Z,5.60
2018-07-10T11:33:57.886Z,5.53
2018-07-10T11:36:26.193Z,6.10
2018-07-10T11:38:57.188Z,5.17
2018-07-10T11:41:25.485Z,5.23
2018-07-10T11:43:53.799Z,5.80
2018-07-10T11:46:22.160Z,5.90
2018-07-10T11:48:50.452Z,5.33
2018-07-10T11:51:18.520Z,6.27
2018-07-10T11:53:46.926Z,5.57
2018-07-10T11:56:15.374Z,5.93
2018-07-10T11:58:43.355Z,6.27
2018-07-10T12:01:18.862Z,5.63
2018-07-10T12:03:47.241Z,5.60
2018-07-10T12:06:15.477Z,5.50
2018-07-10T12:08:50.731Z,5.20
2018-07-10T12:11:19.012Z,5.67
2018-07-10T12:14:00.239Z,5.40
2018-07-10T12:16:28.593Z,4.83
2018-07-10T12:18:57.041Z,5.23
2018-07-10T12:21:25.376Z,5.40
2018-07-10T12:23:53.708Z,5.67
2018-07-10T12:26:22.967Z,4.97
2018-07-10T12:28:51.323Z,5.00
2018-07-10T12:31:19.779Z,4.63
2018-07-10T12:33:48.126Z,5.20
2018-07-10T12:36:16.418Z,4.87
2018-07-10T12:38:44.899Z,4.50
2018-07-10T12:41:13.184Z,4.90
2018-07-10T12:43:41.498Z,5.13
2018-07-10T12:46:09.922Z,4.70
2018-07-10T12:48:38.900Z,5.23
2018-07-10T12:51:07.994Z,5.20
2018-07-10T12:53:37.428Z,4.63
2018-07-10T12:56:05.771Z,4.80
2018-07-10T12:58:36.140Z,4.63
2018-07-10T13:01:04.461Z,4.60
2018-07-10T13:03:32.968Z,4.57
2018-07-10T13:06:01.312Z,4.07
2018-07-10T13:08:29.664Z,4.50
2018-07-10T13:10:57.908Z,4.60
2018-07-10T13:13:26.236Z,4.50
2018-07-10T13:15:57.976Z,4.43
2018-07-10T13:18:28.979Z,4.73
2018-07-10T13:20:57.321Z,4.03
2018-07-10T13:23:25.712Z,4.03
2018-07-10T13:25:53.961Z,4.23
2018-07-10T13:28:22.369Z,4.63
2018-07-10T13:30:51.334Z,3.97
2018-07-10T13:33:19.664Z,4.03
2018-07-10T13:35:48.073Z,4.10
2018-07-10T13:38:24.893Z,4.90
2018-07-10T13:40:54.305Z,3.77
2018-07-10T13:43:22.599Z,3.47
2018-07-10T13:45:50.814Z,3.27
2018-07-10T13:48:31.852Z,3.57
2018-07-10T13:51:00.073Z,3.70
2018-07-10T13:53:28.514Z,3.73
2018-07-10T13:55:57.141Z,3.27
2018-07-10T13:58:30.477Z,3.70
2018-07-10T14:01:04.691Z,3.37
2018-07-10T14:03:33.054Z,3.70
2018-07-10T14:06:01.397Z,2.77
2018-07-10T14:08:29.846Z,3.17
2018-07-10T14:10:58.137Z,2.90
2018-07-10T14:13:26.603Z,2.57
2018-07-10T14:15:55.148Z,2.80
2018-07-10T14:18:23.686Z,2.97
2018-07-10T14:20:53.423Z,2.77
2018-07-10T14:23:22.290Z,2.90
2018-07-10T14:25:51.253Z,2.93
2018-07-10T14:28:19.907Z,2.70
2018-07-10T14:30:48.149Z,2.90
2018-07-10T14:33:16.550Z,2.57
2018-07-10T14:35:44.525Z,2.60
2018-07-10T14:38:20.013Z,2.17
2018-07-10T14:40:49.289Z,2.43
2018-07-10T14:43:21.496Z,2.30
2018-07-10T14:45:50.927Z,2.03
2018-07-10T14:48:19.325Z,2.23
2018-07-10T14:50:47.641Z,2.20
2018-07-10T14:53:15.956Z,2.63
2018-07-10T14:55:44.317Z,1.80
2018-07-10T14:58:12.681Z,2.13
2018-07-10T15:00:41.047Z,2.23
2018-07-10T15:03:09.306Z,2.00
2018-07-10T15:05:37.549Z,2.00
2018-07-10T15:08:05.920Z,1.60
2018-07-10T15:10:34.191Z,1.90
2018-07-10T15:13:02.521Z,1.80
2018-07-10T15:15:30.811Z,1.83
2018-07-10T15:18:04.354Z,1.67
2018-07-10T15:20:32.704Z,1.63
2018-07-10T15:23:02.876Z,1.83
2018-07-10T15:25:31.279Z,1.60
2018-07-10T15:28:02.941Z,2.00
2018-07-10T15:30:31.165Z,2.03
2018-07-10T15:32:59.869Z,2.00
2018-07-10T15:35:28.243Z,1.77
2018-07-10T15:37:57.009Z,1.60
2018-07-10T15:40:25.288Z,1.80
2018-07-10T15:42:53.743Z,1.57
2018-07-10T15:45:22.023Z,1.50
2018-07-10T15:47:50.364Z,1.90
2018-07-10T15:50:18.647Z,1.60
2018-07-10T15:52:46.876Z,1.80
2018-07-10T15:55:15.240Z,1.90
2018-07-10T15:57:43.509Z,1.73
2018-07-10T16:00:11.840Z,2.00
2018-07-10T16:02:40.160Z,1.73
2018-07-10T16:05:08.394Z,1.50
2018-07-10T16:07:36.919Z,1.60
2018-07-10T16:10:05.285Z,1.80
2018-07-10T16:12:35.185Z,1.57
2018-07-10T16:15:03.471Z,1.63
2018-07-10T16:17:31.732Z,1.80
2018-07-10T16:20:05.382Z,1.57
2018-07-10T16:22:35.420Z,1.47
2018-07-10T16:25:08.477Z,1.80
2018-07-10T16:27:41.705Z,1.40
2018-07-10T16:30:11.171Z,2.03
2018-07-10T16:32:41.839Z,1.63
2018-07-10T16:35:11.057Z,1.83
2018-07-10T16:37:39.466Z,1.60
2018-07-10T16:40:08.451Z,1.40
2018-07-10T16:42:42.167Z,1.33
2018-07-10T16:45:13.195Z,1.53
2018-07-10T16:47:49.213Z,1.60
2018-07-10T16:50:19.905Z,1.80
2018-07-10T16:52:52.852Z,1.80
2018-07-10T16:55:21.169Z,1.57
2018-07-10T16:57:49.401Z,1.93
2018-07-10T17:00:21.321Z,1.63
2018-07-10T17:02:52.836Z,1.70
2018-07-10T17:05:21.624Z,1.70
2018-07-10T17:07:49.905Z,1.70
2018-07-10T17:10:21.604Z,1.73
2018-07-10T17:12:49.882Z,1.77
2018-07-10T17:15:18.190Z,2.20
2018-07-10T17:17:46.443Z,1.70
2018-07-10T17:20:15.292Z,1.90
2018-07-10T17:22:46.966Z,1.73
2018-07-10T17:25:15.620Z,1.70
2018-07-10T17:27:46.165Z,1.73
2018-07-10T17:30:14.406Z,1.50
2018-07-10T17:32:42.638Z,1.23
2018-07-10T17:35:10.936Z,1.27
2018-07-10T17:37:41.292Z,1.50
2018-07-10T17:40:09.561Z,1.30
2018-07-10T17:42:38.725Z,1.50
2018-07-10T17:45:09.508Z,1.30
2018-07-10T17:47:50.062Z,1.42
2018-07-10T17:50:18.292Z,1.45
2018-07-10T17:52:46.605Z,1.30
2018-07-10T17:55:15.198Z,1.37
2018-07-10T17:57:43.714Z,1.30
2018-07-10T18:00:12.098Z,1.30
2018-07-10T18:02:48.160Z,1.37
2018-07-10T18:05:16.411Z,1.20
2018-07-10T18:07:44.696Z,1.10
2018-07-10T18:10:13.018Z,1.30
2018-07-10T18:12:41.358Z,1.65
2018-07-10T18:15:09.665Z,1.50
2018-07-10T18:17:37.927Z,1.40
2018-07-10T18:20:06.275Z,1.30
2018-07-10T18:22:34.536Z,1.30
2018-07-10T18:25:19.953Z,1.70
2018-07-10T18:27:48.276Z,1.47
2018-07-10T18:30:16.546Z,1.30
2018-07-10T18:32:44.885Z,1.40
2018-07-10T18:35:13.308Z,1.30
2018-07-10T18:37:42.120Z,1.40
2018-07-10T18:40:10.433Z,1.77
2018-07-10T18:42:38.709Z,1.53
2018-07-10T18:45:07.114Z,1.40
2018-07-10T18:47:37.575Z,1.67
2018-07-10T18:50:06.216Z,1.50
2018-07-10T18:52:34.496Z,1.67
2018-07-10T18:55:15.605Z,1.67
2018-07-10T18:57:59.660Z,1.60
2018-07-10T19:01:10.637Z,1.83
2018-07-10T19:03:39.148Z,1.60
2018-07-10T19:06:12.259Z,1.93
2018-07-10T19:08:42.210Z,1.73
2018-07-10T19:11:13.588Z,1.87
2018-07-10T19:13:41.821Z,1.63
2018-07-10T19:16:10.078Z,2.00
2018-07-10T19:18:38.412Z,1.53
2018-07-10T19:21:11.096Z,2.00
2018-07-10T19:23:44.856Z,1.90
2018-07-10T19:26:13.712Z,1.73
2018-07-10T19:28:42.600Z,2.00
2018-07-10T19:31:13.232Z,2.00
2018-07-10T19:33:42.871Z,1.77
2018-07-10T19:36:11.142Z,1.50
2018-07-10T19:38:39.710Z,1.70
2018-07-10T19:41:08.282Z,1.70
2018-07-10T19:43:36.549Z,1.97
2018-07-10T19:46:04.922Z,1.63
2018-07-10T19:48:34.052Z,1.90
2018-07-10T19:51:02.973Z,1.90
2018-07-10T19:53:31.256Z,1.73
2018-07-10T19:56:10.398Z,2.50
2018-07-10T19:58:41.018Z,2.30
2018-07-10T20:01:18.146Z,2.13
2018-07-10T20:04:52.443Z,1.97
2018-07-10T20:07:25.649Z,2.03
2018-07-10T20:10:04.983Z,2.20
2018-07-10T20:12:37.864Z,2.10
2018-07-10T20:15:10.333Z,2.00
2018-07-10T20:17:44.785Z,2.40
2018-07-10T20:20:16.279Z,2.20
2018-07-10T20:25:57.215Z,2.37
2018-07-10T20:28:36.286Z,1.93
2018-07-10T20:31:11.171Z,2.50
2018-07-10T20:34:17.504Z,2.40
2018-07-10T20:36:50.708Z,2.40
2018-07-10T20:39:18.983Z,2.43
2018-07-10T20:41:48.170Z,2.40
2018-07-10T20:44:18.404Z,2.40
2018-07-10T20:46:50.169Z,2.17
2018-07-10T20:49:20.842Z,2.13
2018-07-10T20:52:00.214Z,2.33
2018-07-10T20:55:05.164Z,2.00
2018-07-10T20:57:37.795Z,2.30
2018-07-10T21:00:13.235Z,2.37
2018-07-10T21:02:51.369Z,2.60
2018-07-10T21:05:24.951Z,2.50
2018-07-10T21:07:56.508Z,2.27
2018-07-10T21:10:58.677Z,2.60
2018-07-10T21:13:35.009Z,2.67
2018-07-10T21:16:09.758Z,2.50
2018-07-10T21:19:49.690Z,2.23
2018-07-10T21:23:29.065Z,2.00
2018-07-10T21:26:02.802Z,2.50
2018-07-10T21:28:47.532Z,2.20
2018-07-10T21:31:23.848Z,2.20
2018-07-10T21:34:01.490Z,2.57
2018-07-10T21:37:37.953Z,2.57
2018-07-10T21:40:18.434Z,2.43
2018-07-10T21:42:58.961Z,2.87
2018-07-10T21:45:39.596Z,2.43
2018-07-10T21:49:16.218Z,2.17
2018-07-10T21:51:47.757Z,2.30
2018-07-10T21:54:16.132Z,2.33
2018-07-10T21:56:44.491Z,2.10
2018-07-10T21:59:14.063Z,2.23
2018-07-10T22:01:52.362Z,2.57
2018-07-10T22:04:22.289Z,2.67
2018-07-10T22:06:51.616Z,3.07
2018-07-10T22:09:20.269Z,2.73
2018-07-10T22:11:49.060Z,3.00
2018-07-10T22:14:17.792Z,2.53
2018-07-10T22:16:46.325Z,2.63
2018-07-10T22:19:22.145Z,2.93
2018-07-10T22:21:50.661Z,2.40
2018-07-10T22:24:22.901Z,2.67
2018-07-10T22:26:51.582Z,2.80
2018-07-10T22:29:26.012Z,2.60
2018-07-10T22:32:00.432Z,2.57
2018-07-10T22:34:30.014Z,2.47
2018-07-10T22:36:59.006Z,2.80
2018-07-10T22:39:27.901Z,2.67
2018-07-10T22:41:59.061Z,2.20
2018-07-10T22:44:28.488Z,2.40
2018-07-10T22:46:57.337Z,2.30
2018-07-10T22:49:25.977Z,2.40
2018-07-10T22:51:56.355Z,2.63
2018-07-10T22:54:24.656Z,2.27
2018-07-10T22:56:52.920Z,2.70
2018-07-10T22:59:21.195Z,2.40
2018-07-10T23:01:49.509Z,2.60
2018-07-10T23:04:18.962Z,1.97
2018-07-10T23:06:47.206Z,2.60
2018-07-10T23:09:15.517Z,2.07
2018-07-10T23:11:43.824Z,1.97
2018-07-10T23:14:12.880Z,1.73
2018-07-10T23:16:41.342Z,2.07
2018-07-10T23:19:10.600Z,2.10
2018-07-10T23:21:40.075Z,2.03
2018-07-10T23:24:09.114Z,2.23
2018-07-10T23:26:38.728Z,2.23
2018-07-10T23:29:07.298Z,2.40
2018-07-10T23:31:36.888Z,2.23
2018-07-10T23:34:10.200Z,2.23
2018-07-10T23:36:38.602Z,2.10
2018-07-10T23:39:09.624Z,2.00
2018-07-10T23:41:42.716Z,1.87
2018-07-10T23:44:12.320Z,2.40
2018-07-10T23:46:49.061Z,2.40
2018-07-10T23:49:17.785Z,2.00
2018-07-10T23:51:57.576Z,2.20
2018-07-10T23:54:26.197Z,1.87
2018-07-10T23:56:54.433Z,2.20
2018-07-10T23:59:22.732Z,2.17
